createdAt,value
2022-09-24T00:01:42.012Z,87.10
2022-09-24T00:04:12.667Z,87.00
2022-09-24T00:06:42.299Z,87.60
2022-09-24T00:09:11.095Z,87.70
2022-09-24T00:11:39.930Z,87.50
2022-09-24T00:14:09.226Z,87.10
2022-09-24T00:16:37.206Z,86.80
2022-09-24T00:19:06.386Z,87.10
2022-09-24T00:21:35.333Z,87.50
2022-09-24T00:24:06.093Z,88.10
2022-09-24T00:26:51.110Z,88.40
2022-09-24T00:29:23.861Z,89.20
2022-09-24T00:31:53.251Z,89.80
2022-09-24T00:34:21.782Z,89.80
2022-09-24T00:36:49.569Z,90.20
2022-09-24T00:39:17.946Z,89.80
2022-09-24T00:41:47.803Z,89.80
2022-09-24T00:44:48.666Z,90.00
2022-09-24T00:47:26.022Z,90.10
2022-09-24T00:49:57.745Z,90.40
2022-09-24T00:52:25.531Z,90.30
2022-09-24T00:54:53.680Z,90.00
2022-09-24T00:57:22.086Z,90.10
2022-09-24T00:59:51.696Z,90.10
2022-09-24T01:02:19.545Z,90.60
2022-09-24T01:04:48.399Z,90.60
2022-09-24T01:07:16.202Z,90.10
2022-09-24T01:09:44.252Z,89.30
2022-09-24T01:12:21.791Z,88.70
2022-09-24T01:15:02.499Z,88.30
2022-09-24T01:17:37.871Z,87.70
2022-09-24T01:20:27.826Z,87.30
2022-09-24T01:23:21.967Z,87.50
2022-09-24T01:26:03.765Z,87.60
2022-09-24T01:28:45.780Z,87.80
2022-09-24T01:31:20.272Z,88.30
2022-09-24T01:33:53.366Z,87.60
2022-09-24T01:36:23.516Z,88.10
2022-09-24T01:38:53.661Z,88.20
2022-09-24T01:41:40.645Z,89.40
2022-09-24T01:44:08.841Z,89.30
2022-09-24T01:46:41.147Z,89.60
2022-09-24T01:49:09.914Z,88.20
2022-09-24T01:51:44.395Z,88.30
2022-09-24T01:54:18.417Z,87.60
2022-09-24T01:56:50.341Z,87.70
2022-09-24T01:59:23.513Z,88.10
2022-09-24T02:01:57.657Z,87.30
2022-09-24T02:04:28.726Z,87.80
2022-09-24T02:07:00.116Z,88.30
2022-09-24T02:09:32.957Z,88.80
2022-09-24T02:12:05.985Z,89.30
2022-09-24T02:14:40.978Z,89.90
2022-09-24T02:17:11.566Z,90.00
2022-09-24T02:19:42.624Z,89.90
2022-09-24T02:22:12.683Z,90.00
2022-09-24T02:24:46.086Z,89.90
2022-09-24T02:27:13.996Z,90.30
2022-09-24T02:29:41.914Z,89.90
2022-09-24T02:32:14.895Z,90.50
2022-09-24T02:34:47.074Z,89.80
2022-09-24T02:37:16.753Z,89.70
2022-09-24T02:39:45.054Z,89.30
2022-09-24T02:42:14.622Z,89.40
2022-09-24T02:44:42.507Z,89.10
2022-09-24T02:47:12.206Z,88.30
2022-09-24T02:49:40.083Z,88.00
2022-09-24T02:52:07.849Z,87.60
2022-09-24T02:54:35.593Z,88.50
2022-09-24T02:57:03.332Z,88.90
2022-09-24T02:59:31.104Z,88.70
2022-09-24T03:01:58.981Z,89.20
2022-09-24T03:04:28.954Z,89.30
2022-09-24T03:06:56.753Z,89.70
2022-09-24T03:09:24.514Z,89.70
2022-09-24T03:11:52.318Z,90.10
2022-09-24T03:14:20.093Z,89.50
2022-09-24T03:16:47.816Z,89.20
2022-09-24T03:19:15.564Z,88.80
2022-09-24T03:21:44.688Z,89.20
2022-09-24T03:24:12.435Z,89.60
2022-09-24T03:26:40.194Z,90.00
2022-09-24T03:29:07.963Z,90.10
2022-09-24T03:31:34.799Z,89.90
2022-09-24T03:34:02.635Z,89.90
2022-09-24T03:36:30.400Z,90.70
2022-09-24T03:38:59.622Z,90.60
2022-09-24T03:41:28.378Z,90.50
2022-09-24T03:43:56.509Z,90.80
2022-09-24T03:46:29.969Z,91.60
2022-09-24T03:49:00.410Z,92.40
2022-09-24T03:51:28.399Z,92.20
2022-09-24T03:53:56.173Z,92.30
2022-09-24T03:56:25.235Z,92.10
2022-09-24T03:58:53.074Z,92.00
2022-09-24T04:01:21.190Z,92.50
2022-09-24T04:03:49.602Z,92.60
2022-09-24T04:06:21.977Z,93.00
2022-09-24T04:08:51.391Z,93.20
2022-09-24T04:11:19.334Z,93.50
2022-09-24T04:13:48.496Z,94.30
2022-09-24T04:16:16.355Z,94.00
2022-09-24T04:18:44.413Z,94.80
2022-09-24T04:21:12.356Z,94.80
2022-09-24T04:23:40.158Z,94.70
2022-09-24T04:26:07.921Z,92.50
2022-09-24T04:28:35.735Z,92.60
2022-09-24T04:31:05.964Z,92.70
2022-09-24T04:33:33.850Z,92.70
2022-09-24T04:36:01.757Z,93.20
2022-09-24T04:38:29.531Z,93.70
2022-09-24T04:41:06.168Z,95.00
2022-09-24T04:43:34.124Z,95.30
2022-09-24T04:46:02.009Z,95.20
2022-09-24T04:48:31.227Z,95.20
2022-09-24T04:50:59.210Z,94.90
2022-09-24T04:53:27.124Z,94.90
2022-09-24T04:55:54.924Z,94.40
2022-09-24T04:58:22.679Z,94.80
2022-09-24T05:00:51.144Z,94.80
2022-09-24T05:03:19.320Z,95.00
2022-09-24T05:05:50.031Z,95.40
2022-09-24T05:08:18.006Z,95.50
2022-09-24T05:10:45.733Z,95.70
2022-09-24T05:13:13.485Z,96.70
2022-09-24T05:15:43.392Z,97.20
2022-09-24T05:18:11.405Z,97.50
2022-09-24T05:20:39.134Z,97.70
2022-09-24T05:23:08.430Z,97.90
2022-09-24T05:25:57.119Z,98.30
2022-09-24T05:28:24.096Z,98.50
2022-09-24T05:30:52.010Z,99.30
2022-09-24T05:33:20.187Z,99.50
2022-09-24T05:35:54.526Z,99.90
2022-09-24T05:38:23.849Z,99.90
2022-09-24T05:40:51.904Z,99.90
2022-09-24T05:43:20.257Z,99.90
2022-09-24T05:45:48.946Z,99.90
2022-09-24T05:48:17.191Z,99.90
2022-09-24T05:50:44.999Z,99.90
2022-09-24T05:53:12.866Z,99.90
2022-09-24T05:55:43.799Z,99.90
2022-09-24T05:58:12.551Z,99.90
2022-09-24T06:00:40.641Z,99.90
2022-09-24T06:03:12.859Z,99.90
2022-09-24T06:05:45.023Z,99.90
2022-09-24T06:08:12.782Z,99.90
2022-09-24T06:10:42.378Z,99.90
2022-09-24T06:13:11.591Z,99.90
2022-09-24T06:15:40.035Z,99.90
2022-09-24T06:18:07.928Z,99.90
2022-09-24T06:20:36.156Z,99.90
2022-09-24T06:23:04.455Z,99.90
2022-09-24T06:25:32.742Z,99.90
2022-09-24T06:28:03.557Z,99.90
2022-09-24T06:30:33.609Z,99.90
2022-09-24T06:33:05.805Z,99.90
2022-09-24T06:35:36.184Z,99.90
2022-09-24T06:38:04.504Z,98.20
2022-09-24T06:40:36.498Z,97.10
2022-09-24T06:43:07.475Z,95.60
2022-09-24T06:45:36.093Z,95.20
2022-09-24T06:48:05.512Z,93.90
2022-09-24T06:50:35.614Z,93.10
2022-09-24T06:53:06.602Z,91.90
2022-09-24T06:55:34.998Z,92.20
2022-09-24T06:58:04.705Z,91.70
2022-09-24T07:00:34.401Z,91.60
2022-09-24T07:03:02.302Z,91.30
2022-09-24T07:05:30.130Z,91.40
2022-09-24T07:07:58.158Z,90.90
2022-09-24T07:10:28.070Z,91.30
2022-09-24T07:12:56.086Z,92.80
2022-09-24T07:15:23.840Z,92.90
2022-09-24T07:17:57.260Z,94.30
2022-09-24T07:20:27.986Z,95.40
2022-09-24T07:22:56.016Z,96.10
2022-09-24T07:25:24.059Z,96.80
2022-09-24T07:27:51.936Z,97.30
2022-09-24T07:30:19.771Z,96.70
2022-09-24T07:32:50.483Z,97.80
2022-09-24T07:35:21.039Z,98.40
2022-09-24T07:37:48.837Z,99.00
2022-09-24T07:40:17.255Z,99.10
2022-09-24T07:42:48.441Z,99.20
2022-09-24T07:45:17.194Z,99.10
2022-09-24T07:47:45.157Z,98.70
2022-09-24T07:50:13.684Z,98.80
2022-09-24T07:52:42.899Z,98.50
2022-09-24T07:55:10.893Z,98.80
2022-09-24T07:57:39.285Z,98.90
2022-09-24T08:00:08.257Z,96.40
2022-09-24T08:02:36.018Z,93.60
2022-09-24T08:05:03.857Z,95.20
2022-09-24T08:07:31.613Z,95.80
2022-09-24T08:10:01.434Z,95.80
2022-09-24T08:12:29.203Z,95.40
2022-09-24T08:14:57.411Z,93.70
2022-09-24T08:17:25.218Z,93.30
2022-09-24T08:19:56.706Z,93.30
2022-09-24T08:22:24.840Z,92.90
2022-09-24T08:24:53.004Z,91.80
2022-09-24T08:27:23.619Z,89.50
2022-09-24T08:29:51.512Z,90.60
2022-09-24T08:32:19.314Z,90.10
2022-09-24T08:34:47.092Z,92.70
2022-09-24T08:37:14.821Z,92.30
2022-09-24T08:39:42.578Z,91.80
2022-09-24T08:42:20.154Z,91.60
2022-09-24T08:45:09.584Z,91.50
2022-09-24T08:47:43.250Z,90.50
2022-09-24T08:50:16.725Z,90.60
2022-09-24T08:53:08.020Z,89.10
2022-09-24T08:55:39.131Z,89.80
2022-09-24T08:58:30.101Z,88.90
2022-09-24T09:01:05.624Z,89.20
2022-09-24T09:03:38.023Z,88.30
2022-09-24T09:06:16.818Z,88.60
2022-09-24T09:09:06.365Z,89.10
2022-09-24T09:11:36.841Z,89.10
2022-09-24T09:14:10.743Z,88.80
2022-09-24T09:16:47.065Z,88.30
2022-09-24T09:19:17.304Z,88.30
2022-09-24T09:21:52.477Z,87.50
2022-09-24T09:24:23.275Z,87.60
2022-09-24T09:26:54.546Z,87.00
2022-09-24T09:29:25.421Z,86.30
2022-09-24T09:32:05.542Z,84.50
2022-09-24T09:34:49.562Z,85.90
2022-09-24T09:37:26.465Z,86.90
2022-09-24T09:40:04.209Z,86.90
2022-09-24T09:42:35.995Z,86.60
2022-09-24T09:45:14.733Z,86.40
2022-09-24T09:47:49.053Z,81.50
2022-09-24T09:50:26.408Z,84.10
2022-09-24T09:52:54.626Z,81.70
2022-09-24T09:55:25.154Z,83.30
2022-09-24T09:57:53.531Z,82.10
2022-09-24T10:00:36.430Z,82.10
2022-09-24T10:03:05.833Z,81.50
2022-09-24T10:05:34.604Z,81.70
2022-09-24T10:08:02.564Z,79.80
2022-09-24T10:10:30.993Z,79.50
2022-09-24T10:13:09.731Z,79.70
2022-09-24T10:15:49.338Z,79.10
2022-09-24T10:18:23.008Z,77.50
2022-09-24T10:20:50.827Z,79.00
2022-09-24T10:23:24.363Z,75.20
2022-09-24T10:25:54.457Z,78.60
2022-09-24T10:28:40.279Z,79.70
2022-09-24T10:31:12.999Z,76.80
2022-09-24T10:33:44.971Z,78.70
2022-09-24T10:36:17.036Z,78.60
2022-09-24T10:38:45.632Z,79.50
2022-09-24T10:41:23.942Z,79.00
2022-09-24T10:43:52.479Z,78.50
2022-09-24T10:46:39.046Z,79.70
2022-09-24T10:49:20.498Z,77.20
2022-09-24T10:51:54.880Z,77.00
2022-09-24T10:54:39.953Z,78.60
2022-09-24T10:57:20.068Z,77.70
2022-09-24T11:00:02.049Z,76.70
2022-09-24T11:03:09.659Z,76.60
2022-09-24T11:05:45.797Z,75.80
2022-09-24T11:08:22.617Z,73.60
2022-09-24T11:11:15.449Z,75.20
2022-09-24T11:13:51.523Z,73.70
2022-09-24T11:16:44.706Z,74.60
2022-09-24T11:19:28.826Z,76.20
2022-09-24T11:22:09.649Z,72.90
2022-09-24T11:25:01.822Z,73.00
2022-09-24T11:27:44.214Z,72.20
2022-09-24T11:30:14.508Z,71.80
2022-09-24T11:33:09.286Z,72.00
2022-09-24T11:35:57.936Z,72.00
2022-09-24T11:38:36.833Z,71.90
2022-09-24T11:41:17.044Z,72.90
2022-09-24T11:44:06.133Z,71.70
2022-09-24T11:46:49.048Z,74.10
2022-09-24T11:49:38.657Z,74.40
2022-09-24T11:52:12.415Z,71.40
2022-09-24T11:54:49.893Z,72.50
2022-09-24T11:57:23.067Z,73.30
2022-09-24T11:59:57.609Z,71.00
2022-09-24T12:02:30.757Z,70.40
2022-09-24T12:05:03.453Z,68.50
2022-09-24T12:07:39.234Z,67.70
2022-09-24T12:10:30.303Z,68.40
2022-09-24T12:13:04.148Z,69.20
2022-09-24T12:15:42.021Z,68.00
2022-09-24T12:18:17.015Z,68.60
2022-09-24T12:20:50.789Z,68.20
2022-09-24T12:23:23.736Z,68.70
2022-09-24T12:25:53.536Z,69.30
2022-09-24T12:28:40.288Z,68.80
2022-09-24T12:31:31.289Z,67.30
2022-09-24T12:34:06.563Z,68.00
2022-09-24T12:36:57.022Z,66.10
2022-09-24T12:39:29.173Z,68.00
2022-09-24T12:42:03.150Z,68.20
2022-09-24T12:44:37.506Z,67.90
2022-09-24T12:47:07.115Z,70.10
2022-09-24T12:49:37.538Z,70.20
2022-09-24T12:52:17.697Z,70.50
2022-09-24T12:54:46.326Z,72.40
2022-09-24T12:57:22.828Z,71.30
2022-09-24T12:59:55.442Z,72.10
2022-09-24T13:02:24.649Z,77.30
2022-09-24T13:05:06.557Z,79.50
2022-09-24T13:07:36.122Z,80.90
2022-09-24T13:10:23.496Z,82.30
2022-09-24T13:12:52.760Z,83.00
2022-09-24T13:15:33.290Z,82.80
2022-09-24T13:18:08.038Z,83.30
2022-09-24T13:20:37.828Z,84.20
2022-09-24T13:23:31.760Z,83.20
2022-09-24T13:26:03.028Z,84.70
2022-09-24T13:28:38.857Z,86.30
2022-09-24T13:31:15.517Z,83.80
2022-09-24T13:33:46.351Z,84.70
2022-09-24T13:36:16.429Z,86.50
2022-09-24T13:38:54.812Z,83.10
2022-09-24T13:41:30.081Z,82.50
2022-09-24T13:44:02.153Z,79.40
2022-09-24T13:46:31.347Z,80.60
2022-09-24T13:49:06.211Z,82.20
2022-09-24T13:51:38.278Z,81.80
2022-09-24T13:54:13.130Z,81.00
2022-09-24T13:56:41.060Z,81.70
2022-09-24T13:59:13.398Z,82.90
2022-09-24T14:01:43.296Z,84.20
2022-09-24T14:04:17.761Z,80.30
2022-09-24T14:06:50.163Z,80.20
2022-09-24T14:09:27.624Z,78.00
2022-09-24T14:11:58.418Z,77.70
2022-09-24T14:14:29.813Z,82.50
2022-09-24T14:17:07.715Z,76.10
2022-09-24T14:19:36.085Z,75.90
2022-09-24T14:22:06.213Z,75.90
2022-09-24T14:24:36.391Z,77.20
2022-09-24T14:27:08.197Z,78.60
2022-09-24T14:29:48.390Z,79.10
2022-09-24T14:32:24.150Z,78.20
2022-09-24T14:34:54.403Z,77.50
2022-09-24T14:37:25.927Z,77.40
2022-09-24T14:40:02.410Z,79.10
2022-09-24T14:42:37.041Z,78.10
2022-09-24T14:45:10.034Z,77.10
2022-09-24T14:47:39.070Z,76.60
2022-09-24T14:50:35.145Z,76.50
2022-09-24T14:53:03.558Z,77.00
2022-09-24T14:55:39.497Z,77.50
2022-09-24T14:58:07.532Z,78.30
2022-09-24T15:00:48.850Z,81.60
2022-09-24T15:03:20.608Z,80.60
2022-09-24T15:05:48.745Z,81.60
2022-09-24T15:08:28.419Z,80.60
2022-09-24T15:10:57.912Z,81.00
2022-09-24T15:13:30.574Z,81.00
2022-09-24T15:16:17.333Z,82.00
2022-09-24T15:18:45.282Z,82.30
2022-09-24T15:21:13.409Z,83.50
2022-09-24T15:23:41.418Z,84.50
2022-09-24T15:26:10.511Z,83.60
2022-09-24T15:28:38.259Z,86.90
2022-09-24T15:31:07.638Z,86.50
2022-09-24T15:33:35.614Z,85.90
2022-09-24T15:36:03.799Z,85.70
2022-09-24T15:38:32.124Z,86.90
2022-09-24T15:41:00.731Z,87.40
2022-09-24T15:43:29.294Z,88.50
2022-09-24T15:45:57.151Z,88.30
2022-09-24T15:48:26.385Z,86.40
2022-09-24T15:50:54.996Z,85.30
2022-09-24T15:53:27.033Z,88.10
2022-09-24T15:55:57.283Z,89.20
2022-09-24T15:58:25.882Z,89.30
2022-09-24T16:00:54.143Z,89.80
2022-09-24T16:03:24.743Z,90.10
2022-09-24T16:05:54.167Z,90.30
2022-09-24T16:08:24.628Z,93.00
2022-09-24T16:10:52.879Z,94.20
2022-09-24T16:13:22.301Z,95.80
2022-09-24T16:15:50.416Z,96.70
2022-09-24T16:18:18.766Z,98.60
2022-09-24T16:20:47.516Z,99.90
2022-09-24T16:23:17.538Z,99.90
2022-09-24T16:25:55.609Z,99.90
2022-09-24T16:28:23.612Z,99.90
2022-09-24T16:30:51.500Z,99.90
2022-09-24T16:33:19.713Z,99.90
2022-09-24T16:35:47.519Z,97.70
2022-09-24T16:38:21.694Z,99.30
2022-09-24T16:40:52.098Z,99.90
2022-09-24T16:43:20.141Z,99.90
2022-09-24T16:45:47.967Z,99.40
2022-09-24T16:48:15.839Z,99.30
2022-09-24T16:50:43.651Z,99.90
2022-09-24T16:53:11.463Z,99.90
2022-09-24T16:55:40.575Z,99.90
2022-09-24T16:58:09.437Z,99.90
2022-09-24T17:00:37.313Z,99.90
2022-09-24T17:03:05.429Z,99.90
2022-09-24T17:05:39.607Z,99.90
2022-09-24T17:08:07.403Z,99.90
2022-09-24T17:10:34.225Z,99.90
2022-09-24T17:13:03.293Z,99.90
2022-09-24T17:15:31.095Z,99.90
2022-09-24T17:17:59.400Z,99.90
2022-09-24T17:20:27.262Z,99.90
2022-09-24T17:22:55.031Z,99.90
2022-09-24T17:25:22.857Z,99.90
2022-09-24T17:27:50.671Z,99.90
2022-09-24T17:30:20.024Z,99.90
2022-09-24T17:32:47.762Z,99.90
2022-09-24T17:35:15.842Z,99.90
2022-09-24T17:37:45.111Z,99.90
2022-09-24T17:40:12.938Z,99.90
2022-09-24T17:42:45.706Z,99.90
2022-09-24T17:45:13.495Z,99.90
2022-09-24T17:47:57.569Z,99.90
2022-09-24T17:50:25.427Z,99.90
2022-09-24T17:52:53.149Z,99.90
2022-09-24T17:55:20.919Z,99.90
2022-09-24T17:57:48.688Z,99.90
2022-09-24T18:00:16.567Z,99.90
2022-09-24T18:02:45.790Z,99.90
2022-09-24T18:05:13.594Z,99.90
2022-09-24T18:07:41.467Z,99.90
2022-09-24T18:10:10.309Z,99.90
2022-09-24T18:12:38.107Z,99.90
2022-09-24T18:15:06.539Z,99.90
2022-09-24T18:17:34.339Z,99.90
2022-09-24T18:20:04.043Z,99.90
2022-09-24T18:22:31.778Z,99.90
2022-09-24T18:25:00.653Z,99.90
2022-09-24T18:27:28.491Z,99.90
2022-09-24T18:29:58.309Z,99.90
2022-09-24T18:32:26.358Z,99.90
2022-09-24T18:34:54.214Z,99.90
2022-09-24T18:37:23.367Z,99.90
2022-09-24T18:39:51.136Z,99.90
2022-09-24T18:42:18.898Z,99.90
2022-09-24T18:44:47.434Z,99.90
2022-09-24T18:47:15.502Z,99.90
2022-09-24T18:49:43.251Z,99.90
2022-09-24T18:52:11.446Z,99.90
2022-09-24T18:54:40.579Z,99.90
2022-09-24T18:57:08.327Z,99.90
2022-09-24T18:59:44.326Z,99.90
2022-09-24T19:02:13.440Z,99.90
2022-09-24T19:04:42.228Z,99.90
2022-09-24T19:07:10.046Z,99.90
2022-09-24T19:09:37.909Z,99.90
2022-09-24T19:12:08.757Z,99.90
2022-09-24T19:14:36.719Z,99.90
2022-09-24T19:17:05.019Z,99.90
2022-09-24T19:19:32.818Z,99.90
2022-09-24T19:22:00.589Z,99.90
2022-09-24T19:24:28.348Z,99.90
2022-09-24T19:26:56.104Z,99.90
2022-09-24T19:29:25.618Z,99.90
2022-09-24T19:31:53.491Z,99.80
2022-09-24T19:34:21.978Z,99.10
2022-09-24T19:36:49.729Z,99.50
2022-09-24T19:39:18.439Z,99.90
2022-09-24T19:41:46.607Z,99.90
2022-09-24T19:44:15.561Z,99.90
2022-09-24T19:46:45.253Z,99.90
2022-09-24T19:49:13.662Z,99.90
2022-09-24T19:51:41.455Z,99.90
2022-09-24T19:54:11.208Z,99.90
2022-09-24T19:56:40.056Z,99.90
2022-09-24T19:59:08.644Z,99.90
2022-09-24T20:01:36.682Z,99.90
2022-09-24T20:04:07.549Z,99.90
2022-09-24T20:06:37.466Z,99.90
2022-09-24T20:09:06.050Z,99.90
2022-09-24T20:11:34.260Z,99.90
2022-09-24T20:14:02.762Z,99.90
2022-09-24T20:16:33.186Z,99.90
2022-09-24T20:19:02.676Z,99.90
2022-09-24T20:21:34.469Z,99.90
2022-09-24T20:24:03.648Z,99.90
2022-09-24T20:26:49.082Z,99.90
2022-09-24T20:29:19.471Z,99.90
2022-09-24T20:31:51.640Z,99.90
2022-09-24T20:34:20.034Z,99.90
2022-09-24T20:36:49.161Z,99.90
2022-09-24T20:39:17.323Z,99.90
2022-09-24T20:41:45.324Z,99.90
2022-09-24T20:44:13.153Z,99.90
2022-09-24T20:46:41.192Z,99.90
2022-09-24T20:49:14.943Z,99.90
2022-09-24T20:51:42.758Z,99.90
2022-09-24T20:54:12.022Z,99.90
2022-09-24T20:56:39.895Z,99.90
2022-09-24T20:59:08.109Z,99.90
2022-09-24T21:01:36.316Z,99.90
2022-09-24T21:04:05.122Z,99.90
2022-09-24T21:06:33.095Z,99.90
2022-09-24T21:09:00.833Z,99.90
2022-09-24T21:11:31.051Z,99.90
2022-09-24T21:14:00.809Z,99.90
2022-09-24T21:16:31.720Z,99.90
2022-09-24T21:19:01.549Z,99.90
2022-09-24T21:21:31.626Z,99.90
2022-09-24T21:24:00.525Z,99.90
2022-09-24T21:26:30.769Z,99.90
2022-09-24T21:29:01.580Z,99.90
2022-09-24T21:31:31.281Z,99.90
2022-09-24T21:33:59.402Z,99.90
2022-09-24T21:36:29.373Z,99.90
2022-09-24T21:38:58.895Z,99.90
2022-09-24T21:41:31.341Z,99.90
2022-09-24T21:43:59.573Z,99.90
2022-09-24T21:46:31.052Z,99.90
2022-09-24T21:48:59.189Z,99.90
2022-09-24T21:51:27.431Z,99.90
2022-09-24T21:53:58.790Z,99.90
2022-09-24T21:56:26.720Z,99.90
2022-09-24T21:58:56.406Z,99.90
2022-09-24T22:01:27.012Z,99.90
2022-09-24T22:03:55.959Z,99.90
2022-09-24T22:06:28.496Z,99.90
2022-09-24T22:08:57.786Z,99.90
2022-09-24T22:11:26.312Z,99.90
2022-09-24T22:13:55.545Z,99.90
2022-09-24T22:16:23.379Z,99.90
2022-09-24T22:18:51.194Z,99.90
2022-09-24T22:21:18.950Z,99.90
2022-09-24T22:23:46.873Z,99.90
2022-09-24T22:26:14.800Z,99.90
2022-09-24T22:28:44.159Z,99.90
2022-09-24T22:31:17.873Z,99.90
2022-09-24T22:34:03.632Z,99.90
2022-09-24T22:36:33.158Z,99.90
2022-09-24T22:39:02.242Z,99.90
2022-09-24T22:41:31.033Z,99.90
2022-09-24T22:43:59.508Z,99.90
2022-09-24T22:46:28.856Z,99.90
2022-09-24T22:48:57.529Z,99.90
2022-09-24T22:51:27.285Z,99.90
2022-09-24T22:53:56.187Z,99.90
2022-09-24T22:56:25.535Z,99.90
2022-09-24T22:58:54.624Z,99.90
2022-09-24T23:01:24.312Z,99.90
2022-09-24T23:03:54.678Z,99.90
2022-09-24T23:06:23.060Z,99.90
2022-09-24T23:08:52.027Z,99.90
2022-09-24T23:11:22.410Z,99.90
2022-09-24T23:13:53.764Z,99.90
2022-09-24T23:16:26.035Z,99.90
2022-09-24T23:18:57.575Z,99.90
2022-09-24T23:21:28.443Z,99.90
2022-09-24T23:23:57.497Z,99.90
2022-09-24T23:26:26.659Z,99.90
2022-09-24T23:28:55.923Z,99.90
2022-09-24T23:31:27.262Z,99.90
2022-09-24T23:33:57.690Z,99.90
2022-09-24T23:36:26.441Z,99.90
2022-09-24T23:38:54.614Z,99.90
2022-09-24T23:41:22.614Z,99.90
2022-09-24T23:43:50.905Z,99.90
2022-09-24T23:46:19.313Z,99.90
2022-09-24T23:48:47.221Z,99.90
2022-09-24T23:51:16.372Z,99.90
2022-09-24T23:53:44.113Z,99.90
2022-09-24T23:56:13.200Z,99.90
2022-09-24T23:58:42.029Z,99.90
